GCTS

Tenerife South Airport

Tenerife Island, Spain
TAF GCTS 201400Z 2015/2115 10013KT 9999 FEW030 BKN040 TX22/2114Z TN14/2106Z BECMG 2016/2019 18010KT PROB40 TEMPO 2023/2109 31007KT TEMPO 2015/2020 10015G25KT
Issued Valid From Valid To
Apr-20 @ 14:00 UTC
(5 hours ago)
Apr-20 @ 15:00 UTC
(4 hours ago)
Apr-21 @ 15:00 UTC
(in 20 hours)
Expired Click to View Apr-20 @ 15:00 to Apr-20 @ 16:00
TAF GCTS 201400Z 2015/2115 10013KT 9999 FEW030 BKN040 TX22/2114Z TN14/2106Z
Wind Visibility Clouds
100° at 13 knots 10,000+ meters
  • Few at 3,000' AGL
  • Broken at 4,000' AGL
Temporary Apr-20 @ 15:00 to Apr-20 @ 20:00
TEMPO 2015/2020 10015G25KT
Wind
100° at 15 knots
 Gusting to 25 knots
Becoming Apr-20 @ 16:00 to Apr-21 @ 15:00
BECMG 2016/2019 18010KT
Wind Visibility Clouds
180° at 10 knots 10,000+ meters
  • Few at 3,000' AGL
  • Broken at 4,000' AGL
Temporary  (Probability 40%) Apr-20 @ 23:00 to Apr-21 @ 09:00
PROB40 TEMPO 2023/2109 31007KT
Wind
310° at 7 knots
TAF GCTS 201400Z 2015/2115 10013KT 9999 FEW030 BKN040 TX22/2114Z TN14/2106Z BECMG 2016/2019 18010KT PROB40 TEMPO 2023/2109 31007KT TEMPO 2015/2020 10015G25KT
Issued Apr-20 @ 14:00 UTC
(5 hours ago)
Valid From Apr-20 @ 15:00 UTC
(4 hours ago)
Valid To Apr-21 @ 15:00 UTC
(in 20 hours)
Apr-20 @ 15:00 - Apr-20 @ 16:00
Wind Visibility
100° at 13 knots 10,000+ meters
Clouds
  • Few at 3,000' AGL
  • Broken at 4,000' AGL
Temporary Apr-20 @ 15:00 - Apr-20 @ 20:00
Wind
100° at 15 knots
 Gusting to 25 knots
Becoming Apr-20 @ 16:00 - Apr-21 @ 15:00
Wind Visibility
180° at 10 knots 10,000+ meters
Clouds
  • Few at 3,000' AGL
  • Broken at 4,000' AGL
Probability 40% Temporary Apr-20 @ 23:00 - Apr-21 @ 09:00
Wind
310° at 7 knots